Saint Elmo, Colorado
Current Conditions -  °F | °C
As of 9:33 PM on Friday 24 Oct 2014 (Local Time) from K7BM Reporting Station
Clear Clear  
Wind Chill: 54°   Ceiling: Unl
Heat Index: 54°   Visibility: 10mi
Dew Point:   Wind: 10mph
Humidity: 12%   Direction: 250°WSW
Pressure: 30.53"   Gusts: 17mph
Location:  38.7194°N, 106.276°W
Report Text: K7BM 250333Z AUTO 25009G15KT 10SM CLR 12/M17 A3053 RMK AO2
Loading
Personal Weather Stations






























Interactive Weather Map
Tropical Storm Tracking
New forecast layout! Learn more

10-Day Weather Forecast

Advertisements
Track Severe Weather on mobile